• Join FlightAware (Why Join?)
  • Login
  • US Flag 
Trick or treat! (Boo!!) 
01:48PM EDT


 

Airport Tracker/Info


-or-


 

Live Flight TrackerFlight Track Log ✈ FLG3800 ✈ 22-Apr-2013 ✈ KAZO - KDTW

Flight Track Log - Related Links

Times and Time Zones

All times are in EDT time to prevent confusion due to time zone crossing. See the FLG3800 flight status page for this flight to view local times or setup timezone preferences in your user account.

Time Position Orientation Groundspeed Altitude Reporting Facility
EDT Latitude Longitude Course Direction KTS MPH feet Rate Location/Type
08:05AM 42.2092 -85.5400 106° East 123 142 2,500  Level Chicago Center
08:06AM 42.1786 -85.4772 123° Southeast 197 227 4,800 2,280 Climbing Chicago Center
08:07AM 42.1672 -85.3831 99° East 250 288 7,300 2,520 Climbing Chicago Center
08:08AM 42.1582 -85.2105 106° East  Level FlightAware Approximate
08:08AM 42.1469 -85.2739 104° East 272 313 10,000  Level Chicago Center
08:09AM 42.1399 -85.1246 106° East  Level FlightAware Approximate
08:09AM 42.1275 -85.1544 102° East 313 360 10,000  Level Chicago Center
08:10AM 42.1214 -85.0387 106° East  Level FlightAware Approximate
08:10AM 42.1069 -85.0269 102° East 340 391 10,800  Level Chicago Center
08:11AM 42.0767 -84.8994 108° East 354 407 11,000 540 Climbing Chicago Center
08:12AM 42.0300 -84.7431 112° Southeast 374 430 12,000 480 Climbing Chicago Center
08:13AM 41.9914 -84.6067 111° Southeast 374 430 12,000  Level Cleveland Center
08:14AM 41.9483 -84.4697 113° Southeast 378 435 12,100 60 Climbing Cleveland Center
08:15AM 41.9261 -84.3875 110° East 375 432 12,100  Level Cleveland Center
08:15AM 41.9169 -84.3450 106° East 379 436 12,100  Level Cleveland Center
08:16AM 41.8867 -84.2483 113° Southeast 372 428 12,100  Level Cleveland Center
08:17AM 41.8414 -84.1008 112° Southeast 379 436 12,100  Level Cleveland Center
08:18AM 41.8661 -83.9711 76° East 375 432 12,100  Level Cleveland Center
08:19AM 41.9378 -83.8689 47° Northeast 378 435 12,100  Level Cleveland Center
08:20AM 42.0178 -83.7694 43° Northeast 377 434 12,100  Level Cleveland Center
08:21AM 42.0978 -83.6700 43° Northeast 378 435 12,100  Level Cleveland Center
08:22AM 42.1708 -83.5867 40° Northeast 379 436 12,100 -240 Level Cleveland Center
08:23AM 42.2372 -83.5142 39° Northeast 271 312 11,700 -1,140 Descending Cleveland Center
08:24AM 42.2947 -83.4717 29° Northeast 245 282 10,000 -1,920 Descending Cleveland Center
08:25AM 42.3519 -83.4294 29° Northeast 228 262 8,000 -2,040 Descending Cleveland Center
08:26AM 42.4175 -83.3903 24° Northeast 218 251 5,700 -1,860 Descending Cleveland Center
08:27AM 42.4111 -83.3139 96° East 216 249 4,100 -1,200 Descending Cleveland Center
08:28AM 42.3636 -83.2978 166° South 176 203 3,300 -840 Descending Cleveland Center
08:29AM 42.3175 -83.2986 181° South 167 192 2,500 -840 Descending Cleveland Center